Flushing, NY (11352)

2:07 PM EDT on July 27, 2016 (GMT -0400)
Cedar Grove Cemetery, Flushing | | Change Station

Elev 49 ft 40.74 °N, 73.83 °W | Updated 1 minute ago

Scattered Clouds
Scattered Clouds
95.4 °F
Feels Like 99 °F
N
2.7
Wind Variable Wind from SSW

Today
High -- | Low -- °F
--% Chance of Precip.
Yesterday
High -- | Low -- °F
Precip. -- in
Pressure 29.91 in
Visibility 10.0 miles
Clouds Scattered Clouds 7000 ft
Heat Index 99 °F
Dew Point 66 °F
Humidity 38%
Rainfall 0.00 in
Snow Depth Not available.
5:47 AM 8:15 PM
Last Quarter, 41% visible
METAR KLGA 271751Z 22007KT 190V250 10SM SCT070 33/16 A2991 RMK AO2 SLP129 T03280156 10328 20256 58011 $
Pressure 29.91 in
Visibility 10.0 miles
Clouds Scattered Clouds 7000 ft
Heat Index 99 °F
Dew Point 66 °F
Humidity 38%
Rainfall 0.00 in
Snow Depth Not available.
5:47 AM 8:15 PM
Last Quarter, 41% visible
METAR KLGA 271751Z 22007KT 190V250 10SM SCT070 33/16 A2991 RMK AO2 SLP129 T03280156 10328 20256 58011 $

10-Day Weather Forecast

Almanac

Astronomy

Jul. 27, 2016 Rise Set
Actual Time
Civil Twilight
Nautical Twilight
Astronomical Twilight
Moon
Length of Visible Light
Length of Day
Tomorrow will be .
, % of the Moon is Illuminated

Today's Extremes

State Highs State Lows

Community

WunderPhotos

Upload Photos

1,927,892 photos uploaded!

WunderBlog® & News

Nearby

Air Quality

  Air Quality AQ Index Pollutant
Not available.

Snow Depth

Station Depth Elevation

Earthquake Activity

City Distance Mag. Time & Date
Minimum magnitude displayed is 2.5.

Coastal Water Temperatures

Place Temperature

Stations

Nearby Weather Stations

Station Location Temp. Windchill Dew Point Humidity Wind Precip. Elev Updated Type
                   

Watches & Warnings

There are currently no watches in effect.